EDDH 200020Z AUTO 29005KT 260V320 8000 BKN010 BKN018 16/15 Q1018 TEMPO BKN008 EDDH 192350Z AUTO 30007KT 8000 -SHRA SCT008 BKN018 BKN024 FEW///CB 17/16 Q1018 RESHRA TEMPO BKN008 EDDH 192320Z AUTO 30007KT 270V330 9999 -SHRA BKN008 BKN014 BKN030 FEW///CB 17/16 Q1018 TEMPO 4500 SHRA BKN015CB EDDH 192250Z AUTO 25006KT 220V280 9999 BKN008 BKN018 BKN032 17/17 Q1018 TEMPO BKN015 EDDH 192220Z AUTO 25006KT 9999 SCT008 BKN011 OVC030 18/17 Q1018 TEMPO BKN008 EDDH 192150Z AUTO 25006KT 220V280 8000 SCT008 BKN018 OVC030 18/17 Q1018 TEMPO BKN008 EDDH 192120Z AUTO 25006KT 220V280 8000 SCT007 BKN010 OVC034 18/17 Q1017 TEMPO BKN007 EDDH 192050Z AUTO 26005KT 8000 BKN007 BKN014 BKN023 18/17 Q1017 TEMPO BKN012 EDDH 192020Z AUTO 25005KT 220V280 7000 FEW007 BKN012 18/17 Q1017 TEMPO 3000 BR BKN007 EDDH 191950Z AUTO 21004KT 190V260 7000 BKN011 17/17 Q1017 TEMPO 27005KT BKN009 EDDH 191920Z AUTO 17004KT 9999 FEW009 18/17 Q1016 TEMPO 27005KT BKN009 EDDH 191850Z AUTO 19006KT 9000 NSC 18/16 Q1016 BECMG 28008KT EDDH 191820Z AUTO 07004KT 040V120 CAVOK 18/16 Q1015 BECMG 28008KT EDDH 191750Z AUTO 04003KT 350V090 9999 -RA NSC 17/16 Q1015 RESHRA BECMG 28008KT EDDH 191720Z AUTO 30006KT 230V330 9000 SHRA VCTS FEW011 FEW///CB 17/16 Q1017 RETS BECMG NSW EDDH 191650Z AUTO 29018KT 9999 SHRA FEW024 FEW///TCU 18/16 Q1017 BECMG 27008KT NSW EDDH 191620Z AUTO 28016G28KT 9999 -SHRA VCTS FEW044 FEW///CB 23/17 Q1016 RESHRA TEMPO 24025G40KT 3000 TSRA BKN020CB EDDH 191550Z AUTO 31006KT 9999 -SHRA FEW///TCU 26/17 Q1014 TEMPO 24025G40KT 3000 TSRA BKN020CB EDDH 191520Z AUTO 32007KT CAVOK 28/16 Q1014 TEMPO FM1615 24025G40KT 4000 TSRA BKN020CB EDDH 191450Z AUTO 30004KT 200V340 CAVOK 28/16 Q1015 TEMPO FM1615 24025G40KT 4000 TSRA BKN020CB EDDH 191420Z AUTO VRB03KT CAVOK 29/13 Q1015 TEMPO 24009KT EDDH 191350Z AUTO 27004KT 230V310 CAVOK 28/14 Q1015 TEMPO 22009KT EDDH 191320Z AUTO 26005KT 230V290 CAVOK 29/14 Q1015 NOSIG EDDH 191250Z AUTO VRB04G15KT CAVOK 29/13 Q1016 TEMPO 22009KT EDDH 191220Z AUTO 24004KT 170V300 CAVOK 28/14 Q1016 TEMPO 22009KT EDDH 191150Z AUTO 21006KT 140V280 CAVOK 27/14 Q1016 NOSIG EDDH 191120Z AUTO 23008KT 200V270 CAVOK 27/14 Q1017 NOSIG EDDH 191050Z AUTO 24009KT 200V280 CAVOK 26/13 Q1017 NOSIG EDDH 191020Z AUTO 23014KT CAVOK 27/13 Q1017 TEMPO 22009KT EDDH 190950Z AUTO 23012KT CAVOK 28/14 Q1017 NOSIG EDDH 190920Z AUTO 21012KT 180V240 CAVOK 27/14 Q1017 NOSIG EDDH 190850Z AUTO 21013KT CAVOK 27/14 Q1018 NOSIG EDDH 190820Z AUTO 19007KT 130V240 CAVOK 26/14 Q1018 NOSIG EDDH 190750Z AUTO 17009KT CAVOK 24/16 Q1018 NOSIG EDDH 190720Z AUTO 17008KT CAVOK 24/15 Q1018 NOSIG EDDH 190650Z AUTO 17008KT CAVOK 22/15 Q1018 NOSIG EDDH 190620Z AUTO 17007KT CAVOK 22/15 Q1019 NOSIG EDDH 190550Z AUTO 17006KT CAVOK 20/15 Q1019 NOSIG EDDH 190520Z AUTO 17004KT CAVOK 20/15 Q1019 NOSIG EDDH 190450Z AUTO 16006KT CAVOK 19/14 Q1018 NOSIG EDDH 190420Z AUTO 15005KT CAVOK 18/14 Q1018 NOSIG EDDH 190350Z AUTO 13004KT CAVOK 17/14 Q1018 NOSIG EDDH 190320Z AUTO 14005KT CAVOK 17/14 Q1018 NOSIG EDDH 190250Z AUTO 15004KT CAVOK 18/14 Q1019 NOSIG EDDH 190220Z AUTO 16005KT CAVOK 18/14 Q1019 NOSIG EDDH 190150Z AUTO 14006KT CAVOK 19/14 Q1019 NOSIG EDDH 190120Z AUTO 15005KT CAVOK 19/14 Q1019 NOSIG EDDH 190050Z AUTO 15005KT CAVOK 19/14 Q1019 NOSIG EDDH 190020Z AUTO 15007KT CAVOK 20/14 Q1019 NOSIG EDDH 182350Z AUTO 14007KT CAVOK 20/15 Q1019 NOSIG EDDH 182320Z AUTO 16007KT CAVOK 21/15 Q1019 NOSIG EDDH 182250Z AUTO 15008KT CAVOK 21/15 Q1019 NOSIG EDDH 182220Z AUTO 15008KT CAVOK 22/15 Q1019 NOSIG EDDH 182150Z AUTO 16009KT CAVOK 22/15 Q1020 NOSIG EDDH 182120Z AUTO 15008KT CAVOK 22/15 Q1020 NOSIG EDDH 182050Z AUTO 15009KT CAVOK 23/15 Q1020 BECMG 16005KT EDDH 182020Z AUTO 15010KT CAVOK 23/15 Q1020 BECMG 16005KT EDDH 181950Z AUTO 14010KT CAVOK 23/15 Q1020 BECMG 16005KT EDDH 181920Z AUTO 14011KT CAVOK 24/15 Q1020 BECMG 16004KT EDDH 181850Z AUTO 14009KT CAVOK 24/15 Q1020 BECMG 16004KT EDDH 181820Z AUTO 14009KT CAVOK 25/15 Q1020 BECMG 16003KT EDDH 181750Z AUTO 13008KT CAVOK 26/16 Q1020 BECMG 16003KT EDDH 181720Z AUTO 15008KT 070V180 CAVOK 27/14 Q1020 BECMG 16003KT EDDH 181650Z AUTO VRB02KT CAVOK 27/13 Q1020 NOSIG EDDH 181620Z AUTO 24004KT 150V270 CAVOK 28/12 Q1020 NOSIG EDDH 181550Z AUTO 21004KT 160V260 CAVOK 28/11 Q1020 NOSIG EDDH 181520Z AUTO 24006KT 190V290 CAVOK 28/13 Q1020 NOSIG EDDH 181450Z AUTO 20005KT 110V240 CAVOK 28/14 Q1020 NOSIG EDDH 181420Z AUTO 14009KT 110V180 CAVOK 27/15 Q1020 NOSIG EDDH 181350Z AUTO 14011KT CAVOK 26/15 Q1020 BECMG 20010KT EDDH 181320Z AUTO 15010KT 100V180 CAVOK 26/16 Q1021 NOSIG EDDH 181250Z AUTO 14010KT 100V170 9999 FEW048 26/16 Q1021 NOSIG

METAR Messwerte "HAMBURG/FUHLSBUT" EDDH

Zurück zur Übersicht

Ortsname
Ländercode / m ü. NN
Zeit Temperatur Taupunkt Rel.
Luftfeuchte
Luftdruck:
Altimeter
NN
Station
Wind in Beaufort
(Knoten)
Sichtweite
(Meter)
Wolken
(Meter über Grund)
Wettererscheinung
HAMBURG/FUHLSBUT
DE 8
Fr 20.05. 02:20161594 %1018
1018
1017
WNW 2 (5)
W - NW
8000Stark bewölkt (550)
Stark bewölkt (300)
 
HAMBURG/FUHLSBUT
DE 8
Fr 20.05. 01:50171694 %1018
1018
1017
WNW 3 (7)8000Stark bewölkt (730)
Stark bewölkt (550)
Wolkig (240)
Regen-Schauer (schwach)
HAMBURG/FUHLSBUT
DE 8
Fr 20.05. 01:20171694 %1018
1018
1017
WNW 3 (7)
W - NNW
>= 10000
Bald zeitweise: 4500
Stark bewölkt (910)
Stark bewölkt (430)
Stark bewölkt (240)
Regen-Schauer (schwach)
Bald zeitweise: Regen-Schauer
HAMBURG/FUHLSBUT
DE 8
Fr 20.05. 00:501717100 %1018
1018
1017
WSW 2 (6)
SW - W
>= 10000Stark bewölkt (980)
Stark bewölkt (550)
Stark bewölkt (240)
 
HAMBURG/FUHLSBUT
DE 8
Fr 20.05. 00:20181794 %1018
1018
1017
WSW 2 (6)>= 10000Bedeckt (910)
Stark bewölkt (340)
Wolkig (240)
 
HAMBURG/FUHLSBUT
DE 8
Do 19.05. 23:50181794 %1018
1018
1017
WSW 2 (6)
SW - W
8000Bedeckt (910)
Stark bewölkt (550)
Wolkig (240)
 
HAMBURG/FUHLSBUT
DE 8
Do 19.05. 23:20181794 %1017
1017
1016
WSW 2 (6)
SW - W
8000Bedeckt (1000)
Stark bewölkt (300)
Wolkig (210)
 
HAMBURG/FUHLSBUT
DE 8
Do 19.05. 22:50181794 %1017
1017
1016
W 2 (5)8000Stark bewölkt (700)
Stark bewölkt (430)
Stark bewölkt (210)
 
HAMBURG/FUHLSBUT
DE 8
Do 19.05. 22:20181794 %1017
1017
1016
WSW 2 (5)
SW - W
7000
Bald zeitweise: 3000
Stark bewölkt (370)
Leicht bewölkt (210)
 Bald zeitweise: Nebeldunst
HAMBURG/FUHLSBUT
DE 8
Do 19.05. 21:501717100 %1017
1017
1016
SSW 2 (4)
S - W
Bald zeitweise:
W 2 (5)
7000Stark bewölkt (340) 
HAMBURG/FUHLSBUT
DE 8
Do 19.05. 21:20181794 %1016
1016
1015
S 2 (4)
Bald zeitweise:
W 2 (5)
>= 10000Leicht bewölkt (270) 
HAMBURG/FUHLSBUT
DE 8
Do 19.05. 20:50181688 %1016
1016
1015
S 2 (6)
Bald Übergang zu:
W 3 (8)
9000Nicht signifikant 
HAMBURG/FUHLSBUT
DE 8
Do 19.05. 20:20181688 %1015
1015
1014
ONO 2 (4)
NO - OSO
Bald Übergang zu:
W 3 (8)
>= 10000Nicht signifikant 
HAMBURG/FUHLSBUT
DE 8
Do 19.05. 19:50171694 %1015
1015
1014
NO 2 (3)
N - O
Bald Übergang zu:
W 3 (8)
>= 10000Nicht signifikantRegen (schwach)
HAMBURG/FUHLSBUT
DE 8
Do 19.05. 19:20171694 %1017
1017
1016
WNW 2 (6)
SW - NNW
9000Leicht bewölkt (340)Regen-Schauer
HAMBURG/FUHLSBUT
DE 8
Do 19.05. 18:50181688 %1017
1017
1016
WNW 5 (18)
Bald Übergang zu:
W 3 (8)
>= 10000Leicht bewölkt (730)Regen-Schauer
HAMBURG/FUHLSBUT
DE 8
Do 19.05. 18:20231769 %1016
1016
1015
W 5 (16) - 7 (28)
Bald zeitweise:
WSW 6 (25) - 8 (40)
>= 10000
Bald zeitweise: 3000
Leicht bewölkt (1300)Regen-Schauer (schwach)
Bald zeitweise: Gewitter mit Regen
HAMBURG/FUHLSBUT
DE 8
Do 19.05. 17:50261758 %1014
1014
1013
NW 2 (6)
Bald zeitweise:
WSW 6 (25) - 8 (40)
>= 10000
Bald zeitweise: 3000
 Regen-Schauer (schwach)
Bald zeitweise: Gewitter mit Regen
HAMBURG/FUHLSBUT
DE 8
Do 19.05. 17:20281648 %1014
1014
1013
NW 3 (7)
Ab 18:15 zeitweise:
WSW 6 (25) - 8 (40)
>= 10000
Ab 18:15 zeitweise: 4000
Nicht signifikant Ab 18:15 zeitweise: Gewitter mit Regen
HAMBURG/FUHLSBUT
DE 8
Do 19.05. 16:50281648 %1015
1015
1014
WNW 2 (4)
SSW - NNW
Ab 18:15 zeitweise:
WSW 6 (25) - 8 (40)
>= 10000
Ab 18:15 zeitweise: 4000
Nicht signifikant Ab 18:15 zeitweise: Gewitter mit Regen
HAMBURG/FUHLSBUT
DE 8
Do 19.05. 16:20291337 %1015
1015
1014
Uml 2 (3)
Bald zeitweise:
WSW 3 (9)
>= 10000Nicht signifikant 
HAMBURG/FUHLSBUT
DE 8
Do 19.05. 15:50281442 %1015
1015
1014
W 2 (4)
SW - NW
Bald zeitweise:
SW 3 (9)
>= 10000Nicht signifikant 
HAMBURG/FUHLSBUT
DE 8
Do 19.05. 15:20291440 %1015
1015
1014
W 2 (5)
SW - WNW
>= 10000Nicht signifikant 
HAMBURG/FUHLSBUT
DE 8
Do 19.05. 14:50291337 %1016
1016
1015
Uml 2 (4) - 4 (15)
Bald zeitweise:
SW 3 (9)
>= 10000Nicht signifikant 
HAMBURG/FUHLSBUT
DE 8
Do 19.05. 14:20281442 %1016
1016
1015
WSW 2 (4)
S - WNW
Bald zeitweise:
SW 3 (9)
>= 10000Nicht signifikant 
HAMBURG/FUHLSBUT
DE 8
Do 19.05. 13:50271445 %1016
1016
1015
SSW 2 (6)
SO - W
>= 10000Nicht signifikant 
HAMBURG/FUHLSBUT
DE 8
Do 19.05. 13:20271445 %1017
1017
1016
SW 3 (8)
SSW - W
>= 10000Nicht signifikant 
HAMBURG/FUHLSBUT
DE 8
Do 19.05. 12:50261345 %1017
1017
1016
WSW 3 (9)
SSW - W
>= 10000Nicht signifikant 
HAMBURG/FUHLSBUT
DE 8
Do 19.05. 12:20271342 %1017
1017
1016
SW 4 (14)
Bald zeitweise:
SW 3 (9)
>= 10000Nicht signifikant 
HAMBURG/FUHLSBUT
DE 8
Do 19.05. 11:50281442 %1017
1017
1016
SW 4 (12)>= 10000Nicht signifikant 
HAMBURG/FUHLSBUT
DE 8
Do 19.05. 11:20271445 %1017
1017
1016
SSW 4 (12)
S - WSW
>= 10000Nicht signifikant 
HAMBURG/FUHLSBUT
DE 8
Do 19.05. 10:50271445 %1018
1018
1017
SSW 4 (13)>= 10000Nicht signifikant 
HAMBURG/FUHLSBUT
DE 8
Do 19.05. 10:20261448 %1018
1018
1017
S 3 (7)
SO - WSW
>= 10000Nicht signifikant 
HAMBURG/FUHLSBUT
DE 8
Do 19.05. 09:50241661 %1018
1018
1017
S 3 (9)>= 10000Nicht signifikant 
HAMBURG/FUHLSBUT
DE 8
Do 19.05. 09:20241557 %1018
1018
1017
S 3 (8)>= 10000Nicht signifikant 
HAMBURG/FUHLSBUT
DE 8
Do 19.05. 08:50221565 %1018
1018
1017
S 3 (8)>= 10000Nicht signifikant 
HAMBURG/FUHLSBUT
DE 8
Do 19.05. 08:20221565 %1019
1019
1018
S 3 (7)>= 10000Nicht signifikant 
HAMBURG/FUHLSBUT
DE 8
Do 19.05. 07:50201573 %1019
1019
1018
S 2 (6)>= 10000Nicht signifikant 
HAMBURG/FUHLSBUT
DE 8
Do 19.05. 07:20201573 %1019
1019
1018
S 2 (4)>= 10000Nicht signifikant 
HAMBURG/FUHLSBUT
DE 8
Do 19.05. 06:50191473 %1018
1018
1017
SSO 2 (6)>= 10000Nicht signifikant 
HAMBURG/FUHLSBUT
DE 8
Do 19.05. 06:20181477 %1018
1018
1017
SSO 2 (5)>= 10000Nicht signifikant 
HAMBURG/FUHLSBUT
DE 8
Do 19.05. 05:50171482 %1018
1018
1017
SO 2 (4)>= 10000Nicht signifikant 
HAMBURG/FUHLSBUT
DE 8
Do 19.05. 05:20171482 %1018
1018
1017
SO 2 (5)>= 10000Nicht signifikant 
HAMBURG/FUHLSBUT
DE 8
Do 19.05. 04:50181477 %1019
1019
1018
SSO 2 (4)>= 10000Nicht signifikant 
HAMBURG/FUHLSBUT
DE 8
Do 19.05. 04:20181477 %1019
1019
1018
SSO 2 (5)>= 10000Nicht signifikant 
HAMBURG/FUHLSBUT
DE 8
Do 19.05. 03:50191473 %1019
1019
1018
SO 2 (6)>= 10000Nicht signifikant 
HAMBURG/FUHLSBUT
DE 8
Do 19.05. 03:20191473 %1019
1019
1018
SSO 2 (5)>= 10000Nicht signifikant 
HAMBURG/FUHLSBUT
DE 8
Do 19.05. 02:50191473 %1019
1019
1018
SSO 2 (5)>= 10000Nicht signifikant 
HAMBURG/FUHLSBUT
DE 8
Do 19.05. 02:20201468 %1019
1019
1018
SSO 3 (7)>= 10000Nicht signifikant 
HAMBURG/FUHLSBUT
DE 8
Do 19.05. 01:50201573 %1019
1019
1018
SO 3 (7)>= 10000Nicht signifikant 
HAMBURG/FUHLSBUT
DE 8
Do 19.05. 01:20211569 %1019
1019
1018
SSO 3 (7)>= 10000Nicht signifikant 
HAMBURG/FUHLSBUT
DE 8
Do 19.05. 00:50211569 %1019
1019
1018
SSO 3 (8)>= 10000Nicht signifikant 
HAMBURG/FUHLSBUT
DE 8
Do 19.05. 00:20221565 %1019
1019
1018
SSO 3 (8)>= 10000Nicht signifikant 
HAMBURG/FUHLSBUT
DE 8
Mi 18.05. 23:50221565 %1020
1020
1019
SSO 3 (9)>= 10000Nicht signifikant 
HAMBURG/FUHLSBUT
DE 8
Mi 18.05. 23:20221565 %1020
1020
1019
SSO 3 (8)>= 10000Nicht signifikant 
HAMBURG/FUHLSBUT
DE 8
Mi 18.05. 22:50231561 %1020
1020
1019
SSO 3 (9)
Bald Übergang zu:
SSO 2 (5)
>= 10000Nicht signifikant 
HAMBURG/FUHLSBUT
DE 8
Mi 18.05. 22:20231561 %1020
1020
1019
SSO 3 (10)
Bald Übergang zu:
SSO 2 (5)
>= 10000Nicht signifikant 
HAMBURG/FUHLSBUT
DE 8
Mi 18.05. 21:50231561 %1020
1020
1019
SO 3 (10)
Bald Übergang zu:
SSO 2 (5)
>= 10000Nicht signifikant 
HAMBURG/FUHLSBUT
DE 8
Mi 18.05. 21:20241557 %1020
1020
1019
SO 4 (11)
Bald Übergang zu:
SSO 2 (4)
>= 10000Nicht signifikant 
HAMBURG/FUHLSBUT
DE 8
Mi 18.05. 20:50241557 %1020
1020
1019
SO 3 (9)
Bald Übergang zu:
SSO 2 (4)
>= 10000Nicht signifikant 
HAMBURG/FUHLSBUT
DE 8
Mi 18.05. 20:20251554 %1020
1020
1019
SO 3 (9)
Bald Übergang zu:
SSO 2 (3)
>= 10000Nicht signifikant 
HAMBURG/FUHLSBUT
DE 8
Mi 18.05. 19:50261654 %1020
1020
1019
SO 3 (8)
Bald Übergang zu:
SSO 2 (3)
>= 10000Nicht signifikant 
HAMBURG/FUHLSBUT
DE 8
Mi 18.05. 19:20271445 %1020
1020
1019
SSO 3 (8)
ONO - S
Bald Übergang zu:
SSO 2 (3)
>= 10000Nicht signifikant 
HAMBURG/FUHLSBUT
DE 8
Mi 18.05. 18:50271342 %1020
1020
1019
Uml 1 (2)>= 10000Nicht signifikant 
HAMBURG/FUHLSBUT
DE 8
Mi 18.05. 18:20281237 %1020
1020
1019
WSW 2 (4)
SSO - W
>= 10000Nicht signifikant 
HAMBURG/FUHLSBUT
DE 8
Mi 18.05. 17:50281135 %1020
1020
1019
SSW 2 (4)
SSO - W
>= 10000Nicht signifikant 
HAMBURG/FUHLSBUT
DE 8
Mi 18.05. 17:20281340 %1020
1020
1019
WSW 2 (6)
S - WNW
>= 10000Nicht signifikant 
HAMBURG/FUHLSBUT
DE 8
Mi 18.05. 16:50281442 %1020
1020
1019
SSW 2 (5)
OSO - WSW
>= 10000Nicht signifikant 
HAMBURG/FUHLSBUT
DE 8
Mi 18.05. 16:20271548 %1020
1020
1019
SO 3 (9)
OSO - S
>= 10000Nicht signifikant 
HAMBURG/FUHLSBUT
DE 8
Mi 18.05. 15:50261551 %1020
1020
1019
SO 4 (11)
Bald Übergang zu:
SSW 3 (10)
>= 10000Nicht signifikant 
HAMBURG/FUHLSBUT
DE 8
Mi 18.05. 15:20261654 %1021
1021
1020
SSO 3 (10)
O - S
>= 10000Nicht signifikant 
HAMBURG/FUHLSBUT
DE 8
Mi 18.05. 14:50261654 %1021
1021
1020
SO 3 (10)
O - S
>= 10000Leicht bewölkt (1500) 

Altimeter: Einstellung am Altimeter (Höhenmesser), die Höhe 0 muss auf diesen Luftdruckwert zeigen, damit das Gerät die Stationshöhe richtig anzeigt.

NN: Luftdruck reduziert auf "Normal Null", auf Meereshöhe, dieser von der Temperatur abhängige Wert wird bisweilen unkorrekt einfach als "Luftdruck" bezeichnet. Eigentlich nur eine fiktive Größe, die es erlaubt, Stationen auf unterschiedlichen Höhen miteinander zu vergleichen.

Station: Realer Luftdruck an der Station.